Time;durP1;ratioP1;P1;durP2;ratioP2;P2;SDS_P1;SDS_P2;PMS_P1;PMS_P2;Temp;Humidity;BMP_temperature;BMP_pressure;BME280_temperature;BME280_humidity;BME280_pressure;Samples;Min_cycle;Max_cycle;Signal;HPM_P1;HPM_P2
2022/10/18 00:02:06;;;;;;;223.30;23.45;;;12.90;99.90;;;;;;4933052;29;20047;-87
2022/10/18 00:04:32;;;;;;;50.90;17.45;;;12.90;99.90;;;;;;4947535;28;20054;-87
2022/10/18 00:07:01;;;;;;;39.47;17.55;;;12.90;99.90;;;;;;4926122;29;20043;-87
2022/10/18 00:09:26;;;;;;;44.25;15.85;;;13.20;99.90;;;;;;4917631;29;20099;-87
2022/10/18 00:11:53;;;;;;;110.78;16.63;;;12.80;99.90;;;;;;4931350;29;20039;-87
2022/10/18 00:14:19;;;;;;;81.25;18.58;;;12.80;99.90;;;;;;4947191;28;20573;-87
2022/10/18 00:16:44;;;;;;;65.75;19.83;;;13.30;99.90;;;;;;4911987;29;20126;-86
2022/10/18 00:19:10;;;;;;;24.63;16.90;;;13.10;99.90;;;;;;4928879;29;20420;-87
2022/10/18 00:21:36;;;;;;;28.52;12.30;;;12.90;99.90;;;;;;4934413;29;20047;-87
2022/10/18 00:24:01;;;;;;;22.42;13.40;;;12.90;99.90;;;;;;4943723;28;20047;-87
2022/10/18 00:26:29;;;;;;;11.88;10.48;;;12.80;99.90;;;;;;4914212;29;20035;-87
2022/10/18 00:28:57;;;;;;;25.30;12.73;;;12.70;99.90;;;;;;4918696;29;20044;-87
2022/10/18 00:31:28;;;;;;;21.20;13.25;;;13.20;99.90;;;;;;4947012;28;20039;-87
2022/10/18 00:33:56;;;;;;;21.48;14.55;;;12.70;99.90;;;;;;4939518;29;20035;-87
2022/10/18 00:36:23;;;;;;;21.30;15.57;;;12.70;99.90;;;;;;4916943;29;20066;-87
2022/10/18 00:38:50;;;;;;;13.73;12.32;;;12.70;99.90;;;;;;4923744;29;20082;-87
2022/10/18 00:41:19;;;;;;;120.22;15.50;;;12.70;99.90;;;;;;4943892;28;20039;-87
2022/10/18 00:44:05;;;;;;;15.45;10.65;;;12.80;99.90;;;;;;4933566;29;20039;-87
2022/10/18 00:46:37;;;;;;;8.52;7.22;;;12.70;99.90;;;;;;4927526;29;20183;-87
2022/10/18 00:49:10;;;;;;;10.40;7.53;;;13.50;99.90;;;;;;4929184;29;20043;-87
2022/10/18 00:51:43;;;;;;;25.85;16.85;;;12.60;99.90;;;;;;4918781;29;20061;-87
2022/10/18 00:54:11;;;;;;;18.60;15.57;;;12.70;99.90;;;;;;4948439;28;20040;-87
2022/10/18 00:56:36;;;;;;;15.40;12.15;;;12.60;99.90;;;;;;4948942;28;20079;-87
2022/10/18 00:59:02;;;;;;;22.10;15.43;;;12.70;99.90;;;;;;4946347;28;20044;-87
2022/10/18 01:01:28;;;;;;;20.17;15.95;;;12.70;99.90;;;;;;4933803;29;20697;-87
2022/10/18 01:03:55;;;;;;;26.88;17.48;;;12.70;99.90;;;;;;4898637;29;20044;-87
2022/10/18 01:06:21;;;;;;;25.85;17.08;;;12.80;99.90;;;;;;4913369;29;20039;-87
2022/10/18 01:09:28;;;;;;;31.58;18.33;;;12.80;99.90;;;;;;4934285;29;20070;-87
2022/10/18 01:12:06;;;;;;;20.90;14.20;;;12.80;99.90;;;;;;4894265;29;20039;-87
2022/10/18 01:14:44;;;;;;;13.90;11.65;;;12.80;99.90;;;;;;4944483;28;20988;-87
2022/10/18 01:17:51;;;;;;;20.25;12.60;;;12.80;99.90;;;;;;4913255;29;20044;-87
2022/10/18 01:20:39;;;;;;;16.10;10.60;;;12.70;99.90;;;;;;4918051;29;20083;-87
2022/10/18 01:23:10;;;;;;;10.48;9.52;;;12.70;99.90;;;;;;4910035;29;20051;-87
2022/10/18 01:25:55;;;;;;;11.00;10.00;;;13.10;99.90;;;;;;4942493;28;20044;-87
2022/10/18 01:28:54;;;;;;;20.30;14.10;;;12.60;99.90;;;;;;4944515;28;20044;-87
2022/10/18 01:31:31;;;;;;;18.45;12.73;;;12.60;99.90;;;;;;4931114;29;20119;-87
2022/10/18 01:34:01;;;;;;;22.98;13.95;;;12.60;99.90;;;;;;4915354;29;20039;-87
2022/10/18 01:36:39;;;;;;;25.17;14.60;;;13.00;99.90;;;;;;4935911;29;20110;-86
2022/10/18 01:39:09;;;;;;;44.05;16.15;;;12.60;99.90;;;;;;4914457;29;20058;-87
2022/10/18 01:41:42;;;;;;;21.52;14.30;;;12.90;99.90;;;;;;4933344;29;20400;-87
2022/10/18 01:44:13;;;;;;;21.45;13.48;;;12.60;99.90;;;;;;4912353;29;20047;-87
2022/10/18 01:46:41;;;;;;;71.03;16.65;;;12.60;99.90;;;;;;4931422;29;20412;-87
2022/10/18 01:49:07;;;;;;;99.05;20.67;;;12.60;99.90;;;;;;4929856;29;20051;-87
2022/10/18 01:51:39;;;;;;;147.10;17.52;;;13.30;99.90;;;;;;4914307;29;20496;-87
2022/10/18 01:54:04;;;;;;;25.10;13.57;;;12.60;99.90;;;;;;4915184;29;20047;-87
2022/10/18 01:56:48;;;;;;;163.55;19.55;;;12.60;99.90;;;;;;4946576;28;20159;-87
2022/10/18 01:59:32;;;;;;;324.70;27.80;;;12.60;99.90;;;;;;4910749;29;20055;-87
2022/10/18 02:02:33;;;;;;;334.17;22.75;;;12.60;99.90;;;;;;4945809;28;20043;-87
2022/10/18 02:05:17;;;;;;;193.32;19.55;;;12.60;99.90;;;;;;4928459;29;20083;-87
2022/10/18 02:08:20;;;;;;;145.30;17.50;;;13.00;99.90;;;;;;4934282;29;20043;-87
2022/10/18 02:10:57;;;;;;;75.70;14.00;;;12.60;99.90;;;;;;4929846;29;20051;-87
2022/10/18 02:13:28;;;;;;;72.57;13.80;;;12.60;99.90;;;;;;4932759;29;20187;-87
2022/10/18 02:16:00;;;;;;;243.30;19.73;;;12.60;99.90;;;;;;4913590;29;20047;-87
2022/10/18 02:18:39;;;;;;;113.55;15.48;;;12.90;99.90;;;;;;4927249;29;20110;-87
2022/10/18 02:21:08;;;;;;;296.90;20.75;;;12.90;99.90;;;;;;4927573;29;20067;-87
2022/10/18 02:23:34;;;;;;;226.55;19.15;;;12.90;99.90;;;;;;4928919;29;20452;-86
2022/10/18 02:26:00;;;;;;;262.60;22.38;;;12.50;99.90;;;;;;4931163;29;20036;-87
2022/10/18 02:28:26;;;;;;;232.45;23.10;;;12.70;99.90;;;;;;4929952;29;20032;-87
2022/10/18 02:31:16;;;;;;;300.23;27.17;;;13.00;99.90;;;;;;4917029;29;20524;-87
2022/10/18 02:33:45;;;;;;;194.82;20.05;;;12.50;99.90;;;;;;4944985;28;20111;-87
2022/10/18 02:36:17;;;;;;;176.23;20.60;;;12.50;99.90;;;;;;4928457;29;20035;-87
2022/10/18 02:38:45;;;;;;;166.80;22.15;;;13.20;99.90;;;;;;4910481;29;20445;-87
2022/10/18 02:41:10;;;;;;;232.68;21.45;;;12.50;99.90;;;;;;4936975;29;20063;-86
2022/10/18 02:43:36;;;;;;;178.77;22.65;;;12.50;99.90;;;;;;4944844;28;20043;-87
2022/10/18 02:46:04;;;;;;;72.90;17.77;;;12.50;99.90;;;;;;4926404;29;20040;-87
2022/10/18 02:48:30;;;;;;;133.75;16.40;;;12.50;99.90;;;;;;4942683;28;20047;-88
2022/10/18 02:50:56;;;;;;;67.13;15.90;;;12.40;99.90;;;;;;4942327;28;20038;-87
2022/10/18 02:53:24;;;;;;;59.97;15.07;;;12.40;99.90;;;;;;4927256;29;20090;-87
2022/10/18 02:55:49;;;;;;;103.57;17.90;;;11.90;99.90;;;;;;4923984;29;20563;-87
2022/10/18 02:58:15;;;;;;;92.88;17.88;;;12.40;99.90;;;;;;4909091;29;20044;-87
2022/10/18 03:00:43;;;;;;;116.28;16.10;;;12.30;99.90;;;;;;4923436;29;20095;-87
2022/10/18 03:03:12;;;;;;;93.40;15.82;;;12.40;99.90;;;;;;4925559;29;20107;-87
2022/10/18 03:05:38;;;;;;;114.45;15.85;;;12.40;99.90;;;;;;4942106;28;20055;-87
2022/10/18 03:08:06;;;;;;;122.78;19.40;;;13.10;99.90;;;;;;4916493;29;20043;-87
2022/10/18 03:10:33;;;;;;;123.97;17.27;;;12.40;99.90;;;;;;4916641;29;20047;-87
2022/10/18 03:12:59;;;;;;;72.75;19.23;;;12.40;99.90;;;;;;4945410;28;20098;-87
2022/10/18 03:15:24;;;;;;;124.53;19.85;;;12.30;99.90;;;;;;4926780;29;20039;-87
2022/10/18 03:17:50;;;;;;;135.23;23.08;;;12.40;99.90;;;;;;4950300;28;20043;-87
2022/10/18 03:20:16;;;;;;;121.65;19.52;;;12.40;99.90;;;;;;4909669;29;20036;-87
2022/10/18 03:22:41;;;;;;;140.70;23.20;;;12.90;99.90;;;;;;4935108;29;20468;-86
2022/10/18 03:25:07;;;;;;;143.75;19.88;;;12.50;99.90;;;;;;4914579;29;20032;-87
2022/10/18 03:27:33;;;;;;;189.35;22.88;;;12.30;99.90;;;;;;4932558;29;20036;-87
2022/10/18 03:29:59;;;;;;;167.55;19.50;;;12.30;99.90;;;;;;4939503;29;20134;-87
2022/10/18 03:32:25;;;;;;;172.15;22.10;;;12.90;99.90;;;;;;4928360;29;20035;-87
2022/10/18 03:34:50;;;;;;;135.48;17.92;;;12.30;99.90;;;;;;4932266;29;20031;-87
2022/10/18 03:37:19;;;;;;;175.27;21.75;;;12.70;99.90;;;;;;4926788;29;20039;-87
2022/10/18 03:39:44;;;;;;;110.35;18.85;;;12.30;99.90;;;;;;4935386;29;20051;-87
2022/10/18 03:42:10;;;;;;;220.38;26.65;;;12.30;99.90;;;;;;4914409;29;20469;-87
2022/10/18 03:44:35;;;;;;;163.45;22.98;;;12.30;99.90;;;;;;4928118;29;20035;-87
2022/10/18 03:47:01;;;;;;;137.48;21.35;;;12.30;99.90;;;;;;4945439;28;20084;-87
2022/10/18 03:49:27;;;;;;;104.43;19.95;;;12.20;99.90;;;;;;4931817;29;20051;-87
2022/10/18 03:51:52;;;;;;;173.27;19.02;;;12.30;99.90;;;;;;4935572;29;20047;-87
2022/10/18 03:54:18;;;;;;;127.32;19.90;;;12.30;99.90;;;;;;4921296;29;20055;-87
2022/10/18 03:56:46;;;;;;;158.73;22.67;;;12.20;99.90;;;;;;4945391;29;20031;-87
2022/10/18 03:59:12;;;;;;;171.63;20.52;;;12.30;99.90;;;;;;4927647;29;20098;-87
2022/10/18 04:01:38;;;;;;;197.98;20.77;;;12.20;99.90;;;;;;4922687;29;20131;-87
2022/10/18 04:04:03;;;;;;;169.38;19.88;;;12.40;99.90;;;;;;4919848;29;20048;-87
2022/10/18 04:06:29;;;;;;;155.57;19.50;;;12.30;99.90;;;;;;4917787;29;20040;-87
2022/10/18 04:08:54;;;;;;;124.13;20.10;;;12.20;99.90;;;;;;4931819;29;20047;-87
2022/10/18 04:11:20;;;;;;;154.75;22.75;;;12.70;99.90;;;;;;4948509;28;20035;-87
2022/10/18 04:13:45;;;;;;;166.48;20.08;;;12.20;99.90;;;;;;4945050;28;20047;-87
2022/10/18 04:16:11;;;;;;;164.57;20.17;;;12.20;99.90;;;;;;4912437;29;20047;-87
2022/10/18 04:18:40;;;;;;;170.90;22.30;;;12.20;99.90;;;;;;4932733;29;20051;-87
2022/10/18 04:21:05;;;;;;;68.38;19.90;;;12.50;99.90;;;;;;4922976;29;20039;-87
2022/10/18 04:23:31;;;;;;;95.90;19.75;;;12.20;99.90;;;;;;4943321;28;20442;-87
2022/10/18 04:25:56;;;;;;;43.35;18.77;;;12.20;99.90;;;;;;4931041;29;20126;-87
2022/10/18 04:28:22;;;;;;;133.68;24.60;;;12.20;99.90;;;;;;4942082;28;20032;-87
2022/10/18 04:30:49;;;;;;;138.57;23.70;;;12.20;99.90;;;;;;4944637;28;20035;-87
2022/10/18 04:33:15;;;;;;;143.00;23.33;;;12.20;99.90;;;;;;4948086;28;20055;-87
2022/10/18 04:35:41;;;;;;;68.13;19.83;;;12.10;99.90;;;;;;4930958;29;20048;-87
2022/10/18 04:38:08;;;;;;;55.55;18.15;;;12.20;99.90;;;;;;4950156;28;20454;-87
2022/10/18 04:40:33;;;;;;;64.28;18.92;;;12.50;99.90;;;;;;4942650;28;20083;-87
2022/10/18 04:42:59;;;;;;;177.68;23.35;;;12.30;99.90;;;;;;4914450;29;20079;-87
2022/10/18 04:45:25;;;;;;;226.40;23.02;;;12.10;99.90;;;;;;4930873;29;20115;-87
2022/10/18 04:47:50;;;;;;;142.68;21.35;;;12.10;99.90;;;;;;4923403;29;20081;-87
2022/10/18 04:50:16;;;;;;;192.68;24.65;;;12.10;99.90;;;;;;4915033;29;20047;-87
2022/10/18 04:52:42;;;;;;;246.65;26.95;;;12.10;99.90;;;;;;4935979;29;20060;-87
2022/10/18 04:55:10;;;;;;;135.60;19.52;;;12.10;99.90;;;;;;4915907;29;20044;-87
2022/10/18 04:57:36;;;;;;;189.32;23.45;;;12.10;99.90;;;;;;4931311;29;20106;-87
2022/10/18 05:00:02;;;;;;;179.93;21.02;;;12.10;99.90;;;;;;4948250;28;20428;-87
2022/10/18 05:02:28;;;;;;;111.03;20.33;;;12.10;99.90;;;;;;4930797;29;20500;-87
2022/10/18 05:04:59;;;;;;;95.90;22.55;;;12.10;99.90;;;;;;4931822;29;20078;-87
2022/10/18 05:07:25;;;;;;;138.48;22.23;;;12.10;99.90;;;;;;4952474;28;20068;-87
2022/10/18 05:09:50;;;;;;;112.20;23.90;;;12.10;99.90;;;;;;4933439;29;20091;-87
2022/10/18 05:12:17;;;;;;;165.57;20.80;;;12.40;99.90;;;;;;4942869;28;20413;-87
2022/10/18 05:14:43;;;;;;;159.88;23.90;;;12.00;99.90;;;;;;4911487;29;20051;-87
2022/10/18 05:17:08;;;;;;;66.75;21.55;;;12.60;99.90;;;;;;4941561;28;20047;-87
2022/10/18 05:19:34;;;;;;;56.92;19.08;;;12.00;99.90;;;;;;4918044;29;20055;-87
2022/10/18 05:22:03;;;;;;;78.72;19.75;;;12.00;99.90;;;;;;4947980;28;20046;-87
2022/10/18 05:24:28;;;;;;;64.25;19.98;;;12.00;99.90;;;;;;4907739;29;20556;-87
2022/10/18 05:26:54;;;;;;;98.50;20.17;;;12.00;99.90;;;;;;4928912;29;20217;-87
2022/10/18 05:29:19;;;;;;;68.88;19.08;;;12.00;99.90;;;;;;4935037;29;20055;-87
2022/10/18 05:31:46;;;;;;;57.13;17.98;;;12.00;99.90;;;;;;4916695;29;20044;-87
2022/10/18 05:34:12;;;;;;;170.43;29.60;;;12.00;99.90;;;;;;4945855;28;20044;-87
2022/10/18 05:36:37;;;;;;;52.05;16.67;;;11.90;99.90;;;;;;4941779;29;20050;-87
2022/10/18 05:39:04;;;;;;;188.10;27.63;;;11.90;99.90;;;;;;4928756;29;20036;-87
2022/10/18 05:41:29;;;;;;;91.53;17.02;;;12.50;99.90;;;;;;4931832;29;20062;-87
2022/10/18 05:43:55;;;;;;;86.80;17.25;;;11.90;99.90;;;;;;4916480;29;20486;-87
2022/10/18 05:46:24;;;;;;;123.32;16.60;;;11.90;99.90;;;;;;4928143;29;20158;-87
2022/10/18 05:48:50;;;;;;;179.73;22.33;;;12.00;99.90;;;;;;4936060;29;20043;-87
2022/10/18 05:51:17;;;;;;;49.25;16.10;;;11.90;99.90;;;;;;4943216;28;20044;-87
2022/10/18 05:53:43;;;;;;;78.32;17.17;;;11.90;99.90;;;;;;4911350;29;20051;-87
2022/10/18 05:56:10;;;;;;;144.55;18.90;;;12.10;99.90;;;;;;4918335;29;20040;-87
2022/10/18 05:58:37;;;;;;;108.13;18.52;;;11.90;99.90;;;;;;4924782;29;20102;-87
2022/10/18 06:01:04;;;;;;;78.57;15.93;;;11.80;99.90;;;;;;4948446;28;20035;-87
2022/10/18 06:03:30;;;;;;;114.10;18.60;;;11.80;99.90;;;;;;4949972;28;20449;-87
2022/10/18 06:06:04;;;;;;;45.25;14.40;;;11.80;99.90;;;;;;4908812;29;20036;-87
2022/10/18 06:08:30;;;;;;;37.75;14.52;;;11.80;99.90;;;;;;4921332;29;20048;-86
2022/10/18 06:10:55;;;;;;;69.32;16.05;;;11.70;99.90;;;;;;4918282;29;20126;-87
2022/10/18 06:13:21;;;;;;;94.35;16.73;;;11.70;99.90;;;;;;4914161;29;20202;-87
2022/10/18 06:15:50;;;;;;;45.03;15.90;;;12.10;99.90;;;;;;4932526;29;20101;-87
2022/10/18 06:18:15;;;;;;;138.48;16.90;;;11.70;99.90;;;;;;4942296;28;20050;-87
2022/10/18 06:20:41;;;;;;;126.25;17.45;;;11.70;99.90;;;;;;4932035;29;20407;-87
2022/10/18 06:23:07;;;;;;;58.50;13.88;;;11.80;99.90;;;;;;4936023;29;20127;-87
2022/10/18 06:25:32;;;;;;;95.90;14.18;;;11.70;99.90;;;;;;4950007;28;20083;-87
2022/10/18 06:27:58;;;;;;;152.27;15.60;;;11.70;99.90;;;;;;4928065;29;20046;-87
2022/10/18 06:30:23;;;;;;;181.43;13.20;;;11.70;99.90;;;;;;4909003;29;20098;-87
2022/10/18 06:32:49;;;;;;;174.75;13.85;;;11.90;99.90;;;;;;4925992;29;20098;-87
2022/10/18 06:35:14;;;;;;;219.48;14.60;;;11.70;99.90;;;;;;4911976;29;20036;-87
2022/10/18 06:37:40;;;;;;;244.25;20.95;;;11.60;99.90;;;;;;4927893;29;20131;-87
2022/10/18 06:40:06;;;;;;;170.73;16.33;;;11.60;99.90;;;;;;4936667;29;20031;-87
2022/10/18 06:42:32;;;;;;;216.57;16.98;;;11.60;99.90;;;;;;4908990;29;20043;-87
2022/10/18 06:44:59;;;;;;;214.38;16.67;;;11.50;99.90;;;;;;4915760;29;20387;-87
2022/10/18 06:47:25;;;;;;;196.05;17.00;;;11.50;99.90;;;;;;4912469;29;20044;-87
2022/10/18 06:49:56;;;;;;;194.15;17.33;;;11.50;99.90;;;;;;4914197;29;20042;-87
2022/10/18 06:52:24;;;;;;;160.13;15.75;;;11.40;99.90;;;;;;4936837;28;20416;-87
2022/10/18 06:54:50;;;;;;;243.43;17.02;;;11.70;99.90;;;;;;4927043;29;20491;-87
2022/10/18 06:57:19;;;;;;;133.18;14.10;;;11.40;99.90;;;;;;4935067;29;20043;-87
2022/10/18 06:59:45;;;;;;;142.48;16.90;;;11.40;99.90;;;;;;4916971;29;20102;-87
2022/10/18 07:02:16;;;;;;;117.18;14.93;;;11.50;99.90;;;;;;4914811;29;20047;-87
2022/10/18 07:04:41;;;;;;;127.90;14.25;;;11.30;99.90;;;;;;4930261;29;20044;-87
2022/10/18 07:07:10;;;;;;;67.68;11.75;;;11.30;99.90;;;;;;4933062;29;20062;-87
2022/10/18 07:09:36;;;;;;;71.32;11.75;;;11.30;99.90;;;;;;4932766;29;20044;-87
2022/10/18 07:12:02;;;;;;;80.55;13.55;;;11.30;99.90;;;;;;4946778;28;20669;-87
2022/10/18 07:14:27;;;;;;;39.50;10.98;;;11.30;99.90;;;;;;4944514;28;20083;-87
2022/10/18 07:16:53;;;;;;;65.75;10.85;;;11.30;99.90;;;;;;4925302;29;20044;-87
2022/10/18 07:19:18;;;;;;;39.58;11.85;;;11.40;99.90;;;;;;4928715;29;20052;-87
2022/10/18 07:21:44;;;;;;;51.92;11.52;;;11.40;99.90;;;;;;4909308;29;20453;-87
2022/10/18 07:24:10;;;;;;;69.68;12.02;;;11.40;99.90;;;;;;4929401;29;20068;-87
2022/10/18 07:26:35;;;;;;;52.30;11.23;;;11.50;99.90;;;;;;4932734;29;20039;-87
2022/10/18 07:29:07;;;;;;;75.50;10.95;;;11.60;99.90;;;;;;4917734;29;20051;-87
2022/10/18 07:31:33;;;;;;;57.28;10.40;;;11.60;99.90;;;;;;4927484;29;20500;-87
2022/10/18 07:34:06;;;;;;;70.05;9.48;;;11.50;99.90;;;;;;4918038;29;20393;-87
2022/10/18 07:36:32;;;;;;;76.55;10.27;;;11.50;99.90;;;;;;4930836;29;20040;-87
2022/10/18 07:38:58;;;;;;;34.58;9.23;;;11.50;99.90;;;;;;4895686;29;20051;-87
2022/10/18 07:41:24;;;;;;;34.90;9.45;;;11.60;99.90;;;;;;4942459;28;20044;-87
2022/10/18 07:43:51;;;;;;;88.90;10.50;;;11.60;99.90;;;;;;4928957;29;20040;-87
2022/10/18 07:46:18;;;;;;;53.13;9.30;;;12.40;99.90;;;;;;4945692;28;20039;-87
2022/10/18 07:48:44;;;;;;;69.47;9.60;;;11.70;99.90;;;;;;4911440;29;20051;-87
2022/10/18 07:51:10;;;;;;;112.53;17.75;;;12.40;99.90;;;;;;4925188;29;20048;-87
2022/10/18 07:53:36;;;;;;;151.48;13.02;;;11.80;99.90;;;;;;4924479;29;20044;-87
2022/10/18 07:56:04;;;;;;;113.35;9.90;;;11.80;99.90;;;;;;4932901;29;20046;-87
2022/10/18 07:58:31;;;;;;;82.55;8.00;;;11.90;99.90;;;;;;4916595;29;20063;-87
2022/10/18 08:01:00;;;;;;;117.15;9.50;;;11.90;99.90;;;;;;4926574;29;20036;-87
2022/10/18 08:03:26;;;;;;;41.33;7.15;;;12.00;99.90;;;;;;4913986;29;20400;-87
2022/10/18 08:05:53;;;;;;;58.55;7.60;;;12.10;99.90;;;;;;4916094;29;20044;-87
2022/10/18 08:08:20;;;;;;;62.45;7.65;;;12.00;99.90;;;;;;4922787;29;20040;-87
2022/10/18 08:10:49;;;;;;;72.95;8.07;;;12.10;99.90;;;;;;4918692;29;20044;-87
2022/10/18 08:13:16;;;;;;;111.28;9.18;;;12.10;99.90;;;;;;4925312;29;20036;-87
2022/10/18 08:15:41;;;;;;;74.80;8.13;;;12.40;99.90;;;;;;4921302;29;20890;-87
2022/10/18 08:18:10;;;;;;;109.50;7.78;;;12.20;99.90;;;;;;4922623;29;20052;-87
2022/10/18 08:20:36;;;;;;;85.10;8.73;;;13.00;99.90;;;;;;4936431;29;20044;-87
2022/10/18 08:23:03;;;;;;;111.38;8.13;;;12.30;99.90;;;;;;4919487;29;20062;-87
2022/10/18 08:25:29;;;;;;;42.03;7.13;;;12.30;99.90;;;;;;4938009;29;20042;-87
2022/10/18 08:27:55;;;;;;;100.00;11.60;;;13.10;99.90;;;;;;4931321;29;20118;-87
2022/10/18 08:30:22;;;;;;;17.23;6.85;;;12.70;99.90;;;;;;4914029;29;20123;-87
2022/10/18 08:32:48;;;;;;;15.98;7.38;;;12.50;99.90;;;;;;4951424;28;20037;-87
2022/10/18 08:35:13;;;;;;;14.38;6.38;;;12.30;99.90;;;;;;4928404;29;20040;-88
2022/10/18 08:37:39;;;;;;;22.60;6.32;;;12.60;99.90;;;;;;4930511;29;20047;-87
2022/10/18 08:40:13;;;;;;;24.20;7.10;;;12.80;99.90;;;;;;4947072;28;20043;-87
2022/10/18 08:42:57;;;;;;;53.22;6.85;;;12.60;99.90;;;;;;4947701;28;20033;-87
2022/10/18 08:45:25;;;;;;;30.52;7.10;;;12.80;99.90;;;;;;4930465;29;20115;-87
2022/10/18 08:47:55;;;;;;;32.47;6.95;;;12.80;99.90;;;;;;4933345;29;20035;-88
2022/10/18 08:50:25;;;;;;;16.65;6.60;;;12.80;99.90;;;;;;4916768;29;20039;-88
2022/10/18 08:53:00;;;;;;;14.43;5.70;;;12.90;99.90;;;;;;4931240;29;20054;-87
2022/10/18 08:55:45;;;;;;;8.18;6.47;;;13.00;99.90;;;;;;4935249;29;20551;-87
2022/10/18 08:58:21;;;;;;;11.45;6.22;;;13.10;99.90;;;;;;4917688;29;20035;-87
2022/10/18 09:01:21;;;;;;;6.80;5.82;;;13.20;99.90;;;;;;4949379;28;20051;-87
2022/10/18 09:04:26;;;;;;;6.75;5.82;;;13.20;99.90;;;;;;4953306;28;20048;-87
2022/10/18 09:07:32;;;;;;;7.63;6.35;;;13.30;99.90;;;;;;4933354;29;20055;-88
2022/10/18 09:10:20;;;;;;;7.55;6.45;;;13.30;99.90;;;;;;4941699;29;20058;-87
2022/10/18 09:13:07;;;;;;;8.00;6.18;;;13.50;99.90;;;;;;4952828;28;20051;-87
2022/10/18 09:15:57;;;;;;;12.02;6.65;;;13.40;99.90;;;;;;4935691;29;20107;-88
2022/10/18 09:18:42;;;;;;;11.13;5.72;;;13.40;99.90;;;;;;4909623;29;20075;-88
2022/10/18 09:21:19;;;;;;;10.27;4.53;;;13.80;99.90;;;;;;4932784;29;20055;-88
2022/10/18 09:23:57;;;;;;;11.13;4.85;;;13.70;99.90;;;;;;4933913;29;20043;-88
2022/10/18 09:26:23;;;;;;;10.27;5.07;;;13.70;99.90;;;;;;4927000;29;20035;-87
2022/10/18 09:28:58;;;;;;;9.40;3.30;;;13.70;99.90;;;;;;4944959;28;20058;-88
2022/10/18 09:31:44;;;;;;;8.75;2.90;;;14.00;99.90;;;;;;4944048;28;20057;-87
2022/10/18 09:34:38;;;;;;;12.75;2.85;;;13.80;99.90;;;;;;4935705;29;20044;-88
2022/10/18 09:37:09;;;;;;;14.88;2.60;;;13.90;99.90;;;;;;4928450;29;20043;-88
2022/10/18 09:39:39;;;;;;;15.40;2.90;;;14.00;99.90;;;;;;4932388;29;20044;-88
2022/10/18 09:42:14;;;;;;;11.25;2.28;;;14.80;99.90;;;;;;4944316;28;20066;-87
2022/10/18 09:44:57;;;;;;;10.23;1.58;;;14.10;99.90;;;;;;4943348;28;20051;-87
2022/10/18 09:47:33;;;;;;;12.48;1.95;;;14.20;99.90;;;;;;4935106;29;20499;-88
2022/10/18 09:50:41;;;;;;;14.07;1.95;;;14.20;99.90;;;;;;4917055;29;20067;-88
2022/10/18 09:53:24;;;;;;;16.83;2.30;;;14.20;99.90;;;;;;4877415;29;20143;-88
2022/10/18 09:56:04;;;;;;;10.48;1.77;;;14.20;99.90;;;;;;4947891;28;20058;-87
2022/10/18 09:58:43;;;;;;;13.05;1.40;;;14.30;99.90;;;;;;4906723;29;20040;-88
2022/10/18 10:01:11;;;;;;;12.23;1.58;;;14.70;99.90;;;;;;4915000;29;20036;-88
2022/10/18 10:03:38;;;;;;;9.23;1.20;;;14.30;99.90;;;;;;4933756;29;20142;-88
2022/10/18 10:06:15;;;;;;;17.17;2.58;;;14.40;99.90;;;;;;4909492;29;20047;-87
2022/10/18 10:08:48;;;;;;;10.05;1.67;;;14.80;99.90;;;;;;4931617;29;20071;-87
2022/10/18 10:11:37;;;;;;;11.73;2.80;;;14.50;99.90;;;;;;4930273;29;20118;-87
2022/10/18 10:14:33;;;;;;;17.83;3.45;;;14.50;99.90;;;;;;4945819;28;20059;-87
2022/10/18 10:17:19;;;;;;;;;;;14.60;99.90;;;;;;4902542;29;20058;-87
2022/10/18 10:20:20;;;;;;;15.48;2.08;;;14.60;99.90;;;;;;4925094;29;19930;-87
2022/10/18 10:22:58;;;;;;;12.05;2.15;;;14.80;99.90;;;;;;4931069;29;20055;-87
2022/10/18 10:25:31;;;;;;;7.22;1.13;;;14.80;99.90;;;;;;4933241;29;20118;-88
2022/10/18 10:28:22;;;;;;;10.80;1.80;;;14.90;99.90;;;;;;4932677;29;20035;-88
2022/10/18 10:30:48;;;;;;;8.85;1.92;;;14.90;99.90;;;;;;4913456;29;20505;-88
2022/10/18 10:33:32;;;;;;;15.50;2.35;;;14.90;99.90;;;;;;4925966;29;20086;-87
2022/10/18 10:35:59;;;;;;;15.60;2.35;;;15.10;99.90;;;;;;4927714;29;20045;-87
2022/10/18 10:38:37;;;;;;;14.20;2.33;;;15.30;99.90;;;;;;4924094;29;20032;-87
2022/10/18 10:41:02;;;;;;;13.50;1.95;;;15.60;99.90;;;;;;4926993;29;20111;-87
2022/10/18 10:43:32;;;;;;;14.52;2.25;;;15.80;99.90;;;;;;4893280;29;20047;-87
2022/10/18 10:46:18;;;;;;;14.20;2.20;;;16.00;99.90;;;;;;4912543;29;20394;-87
2022/10/18 10:49:03;;;;;;;14.15;1.95;;;16.10;99.90;;;;;;4947014;28;20040;-87
2022/10/18 10:51:42;;;;;;;13.57;1.73;;;16.40;99.90;;;;;;4928377;29;20047;-87
2022/10/18 10:54:19;;;;;;;12.07;2.45;;;16.30;99.90;;;;;;4928975;29;20054;-87
2022/10/18 10:56:51;;;;;;;10.90;1.25;;;16.30;99.90;;;;;;4940944;28;20086;-87
2022/10/18 10:59:19;;;;;;;13.48;1.52;;;16.80;99.90;;;;;;4910668;29;20512;-87
2022/10/18 11:02:07;;;;;;;9.02;1.92;;;16.20;99.90;;;;;;4942398;28;20051;-87
2022/10/18 11:04:32;;;;;;;13.65;1.98;;;16.40;99.90;;;;;;4926981;29;20465;-87
2022/10/18 11:07:23;;;;;;;9.50;2.10;;;16.10;99.90;;;;;;4928110;29;20106;-87
2022/10/18 11:10:11;;;;;;;9.52;2.08;;;16.30;99.90;;;;;;4944793;28;20050;-88
2022/10/18 11:12:41;;;;;;;12.50;1.50;;;16.50;99.90;;;;;;4939378;28;20056;-87
2022/10/18 11:15:13;;;;;;;12.30;1.75;;;16.80;99.90;;;;;;4930973;28;20047;-88
2022/10/18 11:17:45;;;;;;;11.80;1.83;;;17.10;99.90;;;;;;4928515;29;20099;-87
2022/10/18 11:20:31;;;;;;;9.52;1.58;;;17.60;99.90;;;;;;4924742;29;20062;-87
2022/10/18 11:23:07;;;;;;;9.65;1.40;;;17.60;99.90;;;;;;4928743;29;20039;-88
2022/10/18 11:26:01;;;;;;;9.25;1.52;;;17.80;99.90;;;;;;4912552;29;20126;-87
2022/10/18 11:28:49;;;;;;;7.10;0.93;;;18.10;99.90;;;;;;4916295;29;20032;-87
2022/10/18 11:31:40;;;;;;;9.90;1.25;;;18.40;99.90;;;;;;4932404;29;20040;-87
2022/10/18 11:34:20;;;;;;;7.80;1.10;;;18.60;99.90;;;;;;4940678;28;20046;-87
2022/10/18 11:37:01;;;;;;;13.27;2.30;;;18.80;99.90;;;;;;4927958;29;20048;-87
2022/10/18 11:40:02;;;;;;;15.13;2.35;;;19.00;99.90;;;;;;4948008;28;20047;-87
2022/10/18 11:42:40;;;;;;;4.20;0.90;;;19.60;99.90;;;;;;4904706;29;20070;-88
2022/10/18 11:45:05;;;;;;;14.35;1.88;;;19.10;99.90;;;;;;4928106;29;20031;-88
2022/10/18 11:47:43;;;;;;;11.50;2.95;;;19.10;99.90;;;;;;4926820;29;20050;-87
2022/10/18 11:50:39;;;;;;;10.70;2.65;;;18.50;99.90;;;;;;4928468;29;20047;-87
2022/10/18 11:53:14;;;;;;;5.38;1.20;;;18.30;99.90;;;;;;4931576;29;20056;-87
2022/10/18 11:56:09;;;;;;;13.85;1.77;;;18.30;99.90;;;;;;4949449;28;20051;-88
2022/10/18 11:58:50;;;;;;;12.20;2.25;;;18.40;99.90;;;;;;4932259;29;20118;-87
2022/10/18 12:01:37;;;;;;;6.55;1.90;;;18.60;99.90;;;;;;4934706;29;20039;-88
2022/10/18 12:04:26;;;;;;;10.27;1.73;;;18.40;99.90;;;;;;4943121;29;20127;-87
2022/10/18 12:06:55;;;;;;;8.73;2.50;;;19.00;99.90;;;;;;4936859;29;20058;-87
2022/10/18 12:09:40;;;;;;;4.38;1.10;;;19.00;99.90;;;;;;4927441;29;20123;-87
2022/10/18 12:12:08;;;;;;;14.02;1.77;;;18.40;99.90;;;;;;4936893;29;20042;-87
2022/10/18 12:14:56;;;;;;;8.82;1.02;;;18.60;99.90;;;;;;4915720;29;20050;-87
2022/10/18 12:17:43;;;;;;;6.85;1.35;;;19.10;99.90;;;;;;4931785;29;20329;-87
2022/10/18 12:20:31;;;;;;;7.07;0.88;;;18.70;99.90;;;;;;4935414;29;20079;-88
2022/10/18 12:23:02;;;;;;;7.93;1.08;;;19.10;99.90;;;;;;4919088;29;20082;-87
2022/10/18 12:25:32;;;;;;;6.32;1.20;;;18.80;99.90;;;;;;4936331;29;20046;-87
2022/10/18 12:28:12;;;;;;;11.57;1.25;;;19.30;99.90;;;;;;4917169;29;20384;-88
2022/10/18 12:30:52;;;;;;;13.27;2.05;;;18.90;99.90;;;;;;4948780;28;20087;-87
2022/10/18 12:33:25;;;;;;;8.45;1.45;;;18.90;99.90;;;;;;4914944;29;20051;-87
2022/10/18 12:35:56;;;;;;;10.07;1.15;;;19.00;99.90;;;;;;4918073;29;20111;-87
2022/10/18 12:38:30;;;;;;;11.13;1.35;;;19.00;99.90;;;;;;4922474;29;20051;-87
2022/10/18 12:41:00;;;;;;;7.88;1.17;;;19.00;99.90;;;;;;4933621;29;20050;-87
2022/10/18 12:43:35;;;;;;;10.07;1.02;;;18.80;99.90;;;;;;4918675;29;20084;-87
2022/10/18 12:46:06;;;;;;;10.40;1.70;;;19.00;99.90;;;;;;4927436;29;20047;-88
2022/10/18 12:48:37;;;;;;;5.20;1.10;;;18.30;99.90;;;;;;4929679;29;20039;-87
2022/10/18 12:51:21;;;;;;;7.43;2.08;;;18.30;99.90;;;;;;4935762;29;20058;-87
2022/10/18 12:54:02;;;;;;;11.07;1.52;;;18.30;99.90;;;;;;4951402;28;20051;-87